Time;durP1;ratioP1;P1;durP2;ratioP2;P2;SDS_P1;SDS_P2;PMS_P1;PMS_P2;Temp;Humidity;BMP_temperature;BMP_pressure;BME280_temperature;BME280_humidity;BME280_pressure;Samples;Min_cycle;Max_cycle;Signal;HPM_P1;HPM_P2
2022/02/12 00:01:06;;;;;;;6.80;3.13;;;-1.40;99.90;;;;;;4997378;28;20221;-78
2022/02/12 00:03:33;;;;;;;6.63;3.30;;;-1.40;99.90;;;;;;4995801;28;20242;-77
2022/02/12 00:05:58;;;;;;;7.63;2.73;;;-1.30;99.90;;;;;;4993942;28;20180;-77
2022/02/12 00:08:24;;;;;;;5.63;2.77;;;-1.30;99.90;;;;;;4997254;28;20741;-78
2022/02/12 00:10:50;;;;;;;4.70;3.03;;;-1.30;99.90;;;;;;4994994;28;20222;-78
2022/02/12 00:13:16;;;;;;;8.63;3.43;;;-1.30;99.90;;;;;;4994891;28;20670;-78
2022/02/12 00:15:42;;;;;;;5.93;2.47;;;-1.40;99.90;;;;;;4997653;28;20221;-77
2022/02/12 00:18:08;;;;;;;6.13;2.90;;;-1.40;99.90;;;;;;5011274;28;20335;-77
2022/02/12 00:20:34;;;;;;;6.60;2.70;;;-1.50;99.90;;;;;;5004245;28;20187;-77
2022/02/12 00:23:00;;;;;;;6.37;4.07;;;-1.60;99.90;;;;;;4996390;28;20187;-76
2022/02/12 00:25:26;;;;;;;10.20;5.23;;;-1.50;99.90;;;;;;4994192;28;20188;-77
2022/02/12 00:27:51;;;;;;;6.57;3.20;;;-1.30;99.90;;;;;;4995902;28;20227;-77
2022/02/12 00:30:17;;;;;;;4.77;2.60;;;-1.20;99.90;;;;;;4995694;28;20192;-80
2022/02/12 00:32:42;;;;;;;3.93;2.60;;;-1.30;99.90;;;;;;4997145;28;20271;-78
2022/02/12 00:35:08;;;;;;;5.17;2.73;;;-1.40;99.90;;;;;;4996010;28;20188;-78
2022/02/12 00:37:34;;;;;;;7.03;3.00;;;-1.40;99.90;;;;;;4995862;28;20705;-78
2022/02/12 00:39:59;;;;;;;4.87;2.30;;;-1.40;99.90;;;;;;4996171;28;20299;-78
2022/02/12 00:42:26;;;;;;;4.53;2.37;;;-1.40;99.90;;;;;;4996689;28;20275;-77
2022/02/12 00:44:52;;;;;;;7.80;2.90;;;-1.50;99.90;;;;;;5010528;28;21007;-78
2022/02/12 00:47:18;;;;;;;4.60;2.33;;;-1.60;99.90;;;;;;4996600;28;20190;-78
2022/02/12 00:49:44;;;;;;;6.43;2.27;;;-1.60;99.90;;;;;;4996847;28;20212;-77
2022/02/12 00:52:10;;;;;;;6.23;2.30;;;-1.60;99.90;;;;;;4994400;28;20184;-78
2022/02/12 00:54:37;;;;;;;6.23;2.87;;;-1.60;99.90;;;;;;4996482;28;20646;-77
2022/02/12 00:57:03;;;;;;;7.07;2.70;;;-1.60;99.90;;;;;;4995446;28;20228;-78
2022/02/12 00:59:29;;;;;;;6.03;2.53;;;-1.70;99.90;;;;;;4996652;28;20257;-78
2022/02/12 01:01:55;;;;;;;5.87;2.10;;;-1.60;99.90;;;;;;4996392;28;20188;-78
2022/02/12 01:04:21;;;;;;;5.07;2.77;;;-1.60;99.90;;;;;;4995626;28;20669;-77
2022/02/12 01:06:46;;;;;;;5.60;2.03;;;-1.70;99.90;;;;;;4996132;28;20188;-78
2022/02/12 01:09:12;;;;;;;4.43;2.50;;;-1.50;99.90;;;;;;4995594;28;20231;-78
2022/02/12 01:11:38;;;;;;;5.60;2.30;;;-1.50;99.90;;;;;;4996958;28;20190;-77
2022/02/12 01:14:03;;;;;;;4.57;2.40;;;-1.60;99.90;;;;;;4995982;28;20238;-78
2022/02/12 01:16:29;;;;;;;5.47;2.70;;;-1.70;99.90;;;;;;5012271;28;20561;-78
2022/02/12 01:18:55;;;;;;;4.03;2.00;;;-1.70;99.90;;;;;;4996637;28;20199;-77
2022/02/12 01:21:20;;;;;;;3.17;2.20;;;-1.80;99.90;;;;;;4996603;28;20192;-77
2022/02/12 01:23:49;;;;;;;6.27;2.53;;;-1.90;99.90;;;;;;4995678;28;20185;-78
2022/02/12 01:26:15;;;;;;;5.40;2.20;;;-1.90;99.90;;;;;;4995727;28;20649;-76
2022/02/12 01:28:41;;;;;;;4.23;2.10;;;-2.00;99.90;;;;;;4996289;28;20199;-77
2022/02/12 01:31:06;;;;;;;4.43;2.00;;;-2.00;99.90;;;;;;5012023;28;20179;-78
2022/02/12 01:33:32;;;;;;;8.47;2.53;;;-2.00;99.90;;;;;;4996100;28;20672;-78
2022/02/12 01:35:58;;;;;;;6.50;2.03;;;-2.00;99.90;;;;;;4994541;28;20188;-76
2022/02/12 01:38:27;;;;;;;6.27;1.93;;;-2.00;99.90;;;;;;4996266;28;20602;-77
2022/02/12 01:40:54;;;;;;;4.23;2.00;;;-2.10;99.90;;;;;;5002955;28;20188;-78
2022/02/12 01:43:19;;;;;;;4.43;1.93;;;-2.10;99.90;;;;;;4999647;28;20176;-78
2022/02/12 01:45:45;;;;;;;4.23;2.67;;;-2.10;99.90;;;;;;5006285;28;20206;-77
2022/02/12 01:48:11;;;;;;;6.43;2.50;;;-2.10;99.90;;;;;;5014478;28;20214;-78
2022/02/12 01:50:37;;;;;;;4.80;1.97;;;-2.20;99.90;;;;;;4999959;28;20210;-78
2022/02/12 01:53:03;;;;;;;8.87;2.97;;;-2.30;99.90;;;;;;5001756;28;20760;-78
2022/02/12 01:55:28;;;;;;;9.13;3.30;;;-2.20;99.90;;;;;;4999715;28;20203;-78
2022/02/12 01:57:54;;;;;;;4.93;3.50;;;-2.30;99.90;;;;;;5000377;28;20729;-77
2022/02/12 02:00:22;;;;;;;6.67;3.50;;;-2.30;99.90;;;;;;4999878;28;20266;-77
2022/02/12 02:02:47;;;;;;;6.97;3.03;;;-2.30;99.90;;;;;;5000564;28;20196;-78
2022/02/12 02:05:15;;;;;;;5.53;3.53;;;-2.40;99.90;;;;;;5000001;28;20176;-77
2022/02/12 02:07:42;;;;;;;7.53;2.67;;;-2.40;99.90;;;;;;4999590;28;20215;-78
2022/02/12 02:10:09;;;;;;;5.30;2.90;;;-2.30;99.90;;;;;;4999430;28;20253;-78
2022/02/12 02:12:35;;;;;;;4.63;2.93;;;-2.20;99.90;;;;;;4999954;28;20184;-78
2022/02/12 02:15:02;;;;;;;5.97;2.90;;;-2.20;99.90;;;;;;4997708;28;20184;-78
2022/02/12 02:17:27;;;;;;;8.50;3.23;;;-2.10;99.90;;;;;;4999859;28;20322;-78
2022/02/12 02:19:53;;;;;;;4.83;2.27;;;-2.10;99.90;;;;;;5015003;28;20298;-78
2022/02/12 02:22:28;;;;;;;8.07;2.43;;;-2.00;99.90;;;;;;5000396;28;20287;-77
2022/02/12 02:24:54;;;;;;;6.87;3.33;;;-1.80;99.90;;;;;;4998816;28;20215;-78
2022/02/12 02:27:21;;;;;;;5.20;2.27;;;-1.80;99.90;;;;;;4998531;28;20233;-78
2022/02/12 02:29:47;;;;;;;13.67;2.60;;;-1.80;99.90;;;;;;4999018;28;20180;-77
2022/02/12 02:32:14;;;;;;;5.27;2.10;;;-1.80;99.90;;;;;;4998777;28;20216;-76
2022/02/12 02:34:54;;;;;;;5.10;2.90;;;-1.80;99.90;;;;;;4998620;28;20188;-78
2022/02/12 02:37:22;;;;;;;7.50;2.50;;;-1.90;99.90;;;;;;4999289;28;20690;-76
2022/02/12 02:39:48;;;;;;;6.23;2.53;;;-1.90;99.90;;;;;;4998005;28;20288;-77
2022/02/12 02:42:14;;;;;;;5.77;2.40;;;-2.00;99.90;;;;;;4999510;28;20279;-77
2022/02/12 02:44:40;;;;;;;6.77;2.53;;;-2.00;99.90;;;;;;4998608;28;20180;-78
2022/02/12 02:49:51;;;;;;;10.73;2.37;;;-1.90;99.90;;;;;;4999407;28;21026;-77
2022/02/12 02:57:45;;;;;;;3.17;1.83;;;-1.60;99.90;;;;;;5000362;28;20265;-77
2022/02/12 03:00:12;;;;;;;5.97;2.37;;;-1.70;99.90;;;;;;5014120;28;20596;-78
2022/02/12 03:02:37;;;;;;;5.63;2.07;;;-1.70;99.90;;;;;;4997784;28;20673;-76
2022/02/12 03:05:04;;;;;;;4.83;2.17;;;-1.70;99.90;;;;;;4998051;28;20188;-77
2022/02/12 03:07:30;;;;;;;4.73;2.00;;;-1.70;99.90;;;;;;4998676;28;20195;-79
2022/02/12 03:09:55;;;;;;;5.67;2.10;;;-1.70;99.90;;;;;;4999292;28;20182;-79
2022/02/12 03:12:21;;;;;;;7.17;1.67;;;-1.70;99.90;;;;;;4998982;28;20184;-79
2022/02/12 03:14:47;;;;;;;3.50;2.03;;;-1.60;99.90;;;;;;4996958;28;20199;-77
2022/02/12 03:17:12;;;;;;;6.07;2.10;;;-1.60;99.90;;;;;;5005253;28;20238;-78
2022/02/12 03:19:38;;;;;;;7.37;2.03;;;-1.70;99.90;;;;;;5006825;28;20246;-78
2022/02/12 03:22:04;;;;;;;3.20;1.33;;;-1.70;99.90;;;;;;4998793;28;20191;-77
2022/02/12 03:24:29;;;;;;;4.10;1.87;;;-1.70;99.90;;;;;;4999458;28;20626;-78
2022/02/12 03:26:55;;;;;;;5.40;1.70;;;-1.80;99.90;;;;;;4997481;28;20184;-78
2022/02/12 03:29:22;;;;;;;4.70;1.90;;;-1.90;99.90;;;;;;4995249;28;20690;-78
2022/02/12 03:31:48;;;;;;;5.23;2.43;;;-1.90;99.90;;;;;;4999516;28;20179;-79
2022/02/12 03:34:13;;;;;;;3.33;1.80;;;-2.00;99.90;;;;;;5000844;28;20191;-79
2022/02/12 03:36:39;;;;;;;3.87;1.80;;;-2.00;99.90;;;;;;5003710;28;20254;-79
2022/02/12 03:39:04;;;;;;;4.10;1.80;;;-2.10;99.90;;;;;;5001054;28;20204;-79
2022/02/12 03:41:30;;;;;;;5.57;1.90;;;-2.10;99.90;;;;;;5006222;28;20190;-77
2022/02/12 03:43:56;;;;;;;4.07;1.30;;;-2.20;99.90;;;;;;5004826;28;20183;-79
2022/02/12 03:46:21;;;;;;;3.40;1.70;;;-2.20;99.90;;;;;;5002807;28;20239;-79
2022/02/12 03:48:47;;;;;;;3.27;1.37;;;-2.20;99.90;;;;;;5004419;28;20744;-78
2022/02/12 03:51:12;;;;;;;3.77;1.47;;;-2.20;99.90;;;;;;5006129;28;20242;-76
2022/02/12 03:53:38;;;;;;;3.40;1.40;;;-2.10;99.90;;;;;;5001888;28;20194;-80
2022/02/12 03:56:04;;;;;;;5.73;1.40;;;-2.10;99.90;;;;;;4999573;28;20184;-79
2022/02/12 03:58:29;;;;;;;4.77;1.70;;;-2.20;99.90;;;;;;5006878;28;20752;-76
2022/02/12 04:00:55;;;;;;;4.53;1.43;;;-2.30;99.90;;;;;;5013497;28;20187;-76
2022/02/12 04:03:21;;;;;;;4.80;1.83;;;-2.40;99.90;;;;;;5011770;28;20249;-77
2022/02/12 04:05:47;;;;;;;3.43;1.53;;;-2.40;99.90;;;;;;4997488;28;20196;-75
2022/02/12 04:08:18;;;;;;;6.03;1.83;;;-2.40;99.90;;;;;;5013344;28;20208;-76
2022/02/12 04:10:45;;;;;;;5.53;1.60;;;-2.40;99.90;;;;;;4999477;28;20180;-77
2022/02/12 04:13:11;;;;;;;3.00;1.40;;;-2.40;99.90;;;;;;4998973;28;20199;-79
2022/02/12 04:15:36;;;;;;;4.30;1.30;;;-2.40;99.90;;;;;;5017624;28;20188;-80
2022/02/12 04:18:02;;;;;;;4.77;1.50;;;-2.40;99.90;;;;;;5015983;28;20247;-79
2022/02/12 04:20:28;;;;;;;4.27;1.53;;;-2.40;99.90;;;;;;5000563;28;20192;-75
2022/02/12 04:22:53;;;;;;;4.00;1.83;;;-2.40;99.90;;;;;;5002898;28;20184;-79
2022/02/12 04:25:22;;;;;;;5.97;1.60;;;-2.50;99.90;;;;;;5002501;28;20872;-79
2022/02/12 04:27:48;;;;;;;2.27;1.53;;;-2.50;99.90;;;;;;5017554;28;20223;-78
2022/02/12 04:30:14;;;;;;;7.57;1.90;;;-2.50;99.90;;;;;;5014676;28;20185;-78
2022/02/12 04:32:41;;;;;;;5.63;1.60;;;-2.50;99.90;;;;;;5007461;28;20192;-78
2022/02/12 04:35:08;;;;;;;3.50;1.33;;;-2.40;99.90;;;;;;5011793;28;20191;-78
2022/02/12 04:37:34;;;;;;;6.00;1.30;;;-2.30;99.90;;;;;;4999126;28;20211;-78
2022/02/12 04:40:00;;;;;;;3.23;1.50;;;-2.30;99.90;;;;;;4999016;28;20183;-78
2022/02/12 04:42:26;;;;;;;6.40;1.90;;;-2.20;99.90;;;;;;5000567;28;20190;-78
2022/02/12 04:44:53;;;;;;;4.17;1.40;;;-2.00;99.90;;;;;;5001253;28;20233;-78
2022/02/12 04:47:20;;;;;;;4.13;1.23;;;-1.90;99.90;;;;;;5001214;28;20188;-77
2022/02/12 04:49:46;;;;;;;4.27;1.77;;;-1.80;99.90;;;;;;5005916;28;20188;-78
2022/02/12 04:52:14;;;;;;;6.67;1.50;;;-1.70;99.90;;;;;;4998896;28;20194;-78
2022/02/12 04:54:41;;;;;;;6.33;1.57;;;-1.70;99.90;;;;;;5001432;28;20292;-78
2022/02/12 04:57:07;;;;;;;5.73;1.57;;;-1.70;99.90;;;;;;5000787;28;20573;-79
2022/02/12 04:59:33;;;;;;;3.77;1.53;;;-1.70;99.90;;;;;;5003768;28;20238;-78
2022/02/12 05:01:59;;;;;;;5.40;1.67;;;-1.70;99.90;;;;;;5002450;28;20298;-78
2022/02/12 05:04:25;;;;;;;4.20;1.50;;;-1.60;99.90;;;;;;5004619;28;20234;-78
2022/02/12 05:06:51;;;;;;;5.07;1.23;;;-1.60;99.90;;;;;;5000582;28;20230;-78
2022/02/12 05:09:17;;;;;;;3.63;1.30;;;-1.60;99.90;;;;;;4997898;28;20222;-78
2022/02/12 05:11:46;;;;;;;4.17;1.10;;;-1.60;99.90;;;;;;5012143;28;20187;-79
2022/02/12 05:14:12;;;;;;;3.13;1.30;;;-1.60;99.90;;;;;;4997056;28;20234;-78
2022/02/12 05:16:37;;;;;;;2.30;1.10;;;-1.50;99.90;;;;;;4997566;28;20207;-78
2022/02/12 05:19:03;;;;;;;5.30;1.23;;;-1.60;99.90;;;;;;5000420;28;20235;-78
2022/02/12 05:21:29;;;;;;;3.87;1.30;;;-1.60;99.90;;;;;;5002441;28;20214;-77
2022/02/12 05:23:55;;;;;;;8.00;1.67;;;-1.60;99.90;;;;;;5000171;28;20192;-78
2022/02/12 05:26:20;;;;;;;4.90;1.60;;;-1.60;99.90;;;;;;5017382;28;20206;-77
2022/02/12 05:28:46;;;;;;;6.60;1.37;;;-1.70;99.90;;;;;;5000373;28;20207;-78
2022/02/12 05:31:12;;;;;;;1.80;0.90;;;-1.70;99.90;;;;;;5004809;28;20665;-78
2022/02/12 05:33:38;;;;;;;2.50;1.43;;;-1.70;99.90;;;;;;5001156;28;20188;-80
2022/02/12 05:36:11;;;;;;;2.23;1.20;;;-1.70;99.90;;;;;;5004020;28;20203;-79
2022/02/12 05:38:41;;;;;;;4.60;1.43;;;-1.70;99.90;;;;;;4998839;28;20220;-76
2022/02/12 05:41:12;;;;;;;3.87;1.30;;;-1.70;99.90;;;;;;4996799;28;20622;-78
2022/02/12 05:43:38;;;;;;;3.33;1.10;;;-1.70;99.90;;;;;;4998438;28;20194;-80
2022/02/12 05:46:05;;;;;;;5.50;1.57;;;-1.70;99.90;;;;;;4992436;28;20184;-78
2022/02/12 05:48:30;;;;;;;7.23;2.67;;;-1.70;99.90;;;;;;5000502;28;20254;-79
2022/02/12 05:50:56;;;;;;;4.50;1.40;;;-1.70;99.90;;;;;;5000658;28;20187;-78
2022/02/12 05:53:22;;;;;;;4.70;1.60;;;-1.80;99.90;;;;;;4992734;28;20678;-80
2022/02/12 05:55:48;;;;;;;2.43;0.93;;;-1.80;99.90;;;;;;4993998;28;20192;-79
2022/02/12 05:58:14;;;;;;;4.73;1.80;;;-1.80;99.90;;;;;;4998619;28;20222;-77
2022/02/12 06:00:40;;;;;;;2.90;1.03;;;-1.80;99.90;;;;;;5012596;28;20860;-80
2022/02/12 06:03:06;;;;;;;2.63;1.00;;;-1.90;99.90;;;;;;4994735;28;20263;-75
2022/02/12 06:05:32;;;;;;;19.97;14.00;;;-1.90;99.90;;;;;;4991289;28;20184;-77
2022/02/12 06:08:01;;;;;;;10.33;4.20;;;-1.90;99.90;;;;;;4995130;28;20298;-75
2022/02/12 06:10:27;;;;;;;6.63;3.67;;;-1.90;99.90;;;;;;4993665;28;20257;-77
2022/02/12 06:12:54;;;;;;;18.87;11.60;;;-1.90;99.90;;;;;;4997176;28;20187;-79
2022/02/12 06:15:21;;;;;;;4.73;2.60;;;-2.00;99.90;;;;;;5000024;28;20183;-76
2022/02/12 06:17:47;;;;;;;4.07;2.83;;;-2.00;99.90;;;;;;5011081;28;20216;-80
2022/02/12 06:20:13;;;;;;;6.03;4.60;;;-1.90;99.90;;;;;;4998669;28;20190;-78
2022/02/12 06:22:39;;;;;;;2.90;1.50;;;-1.90;99.90;;;;;;4992553;28;20965;-78
2022/02/12 06:25:06;;;;;;;5.10;2.30;;;-2.00;99.90;;;;;;4999814;28;20646;-79
2022/02/12 06:27:31;;;;;;;3.70;1.50;;;-2.00;99.90;;;;;;4998650;28;20192;-78
2022/02/12 06:29:57;;;;;;;2.83;1.33;;;-2.10;99.90;;;;;;4999496;28;20380;-78
2022/02/12 06:32:23;;;;;;;3.50;1.10;;;-2.20;99.90;;;;;;4998067;28;20191;-78
2022/02/12 06:34:51;;;;;;;3.63;1.40;;;-2.20;99.90;;;;;;5000901;28;20187;-78
2022/02/12 06:37:19;;;;;;;4.60;1.97;;;-2.20;99.90;;;;;;4999267;28;20203;-79
2022/02/12 06:39:44;;;;;;;2.67;1.20;;;-2.20;99.90;;;;;;4998331;28;20287;-78
2022/02/12 06:42:10;;;;;;;5.10;1.50;;;-2.20;99.90;;;;;;4994683;28;20302;-80
2022/02/12 06:44:37;;;;;;;4.50;1.40;;;-2.20;99.90;;;;;;5012722;28;20187;-80
2022/02/12 06:47:03;;;;;;;3.63;1.50;;;-2.30;99.90;;;;;;4991531;28;20652;-77
2022/02/12 06:49:29;;;;;;;3.30;1.40;;;-2.30;99.90;;;;;;4991303;28;20277;-77
2022/02/12 06:51:55;;;;;;;4.87;1.97;;;-2.20;99.90;;;;;;4986267;28;20663;-77
2022/02/12 06:54:21;;;;;;;3.93;1.97;;;-2.20;99.90;;;;;;4990007;28;20184;-76
2022/02/12 06:56:46;;;;;;;5.93;2.23;;;-2.10;99.90;;;;;;4984976;28;20194;-77
2022/02/12 06:59:12;;;;;;;4.03;2.03;;;-2.10;99.90;;;;;;4994507;28;20196;-76
2022/02/12 07:01:37;;;;;;;3.80;2.00;;;-2.10;99.90;;;;;;4986486;28;20659;-78
2022/02/12 07:04:03;;;;;;;3.47;1.40;;;-2.10;99.90;;;;;;4987286;28;20180;-76
2022/02/12 07:06:29;;;;;;;3.67;1.60;;;-2.00;99.90;;;;;;4999250;28;20184;-78
2022/02/12 07:08:55;;;;;;;4.17;1.30;;;-1.90;99.90;;;;;;4998351;28;20301;-76
2022/02/12 07:11:21;;;;;;;3.60;1.27;;;-1.90;99.90;;;;;;4997842;28;20188;-78
2022/02/12 07:13:47;;;;;;;4.73;2.40;;;-1.90;99.90;;;;;;5008408;28;20180;-78
2022/02/12 07:16:13;;;;;;;4.77;1.40;;;-1.80;99.90;;;;;;4989995;28;20559;-77
2022/02/12 07:18:39;;;;;;;7.00;5.50;;;-1.80;99.90;;;;;;4986885;28;20204;-77
2022/02/12 07:21:08;;;;;;;3.53;2.07;;;-1.80;99.90;;;;;;4986340;28;20428;-77
2022/02/12 07:23:34;;;;;;;5.57;1.77;;;-1.70;99.90;;;;;;4979222;28;20246;-75
2022/02/12 07:25:59;;;;;;;6.63;1.37;;;-1.80;99.90;;;;;;4983988;28;20184;-77
2022/02/12 07:28:29;;;;;;;2.93;1.20;;;-1.80;99.90;;;;;;5001116;28;20215;-77
2022/02/12 07:30:55;;;;;;;5.03;1.37;;;-1.80;99.90;;;;;;4986702;28;20175;-76
2022/02/12 07:33:26;;;;;;;12.00;8.13;;;-1.70;99.90;;;;;;4991345;28;20608;-80
2022/02/12 07:35:55;;;;;;;4.97;2.13;;;-1.60;99.90;;;;;;4991620;28;20266;-78
2022/02/12 07:38:21;;;;;;;5.60;1.80;;;-1.50;99.90;;;;;;4985205;28;20218;-78
2022/02/12 07:40:47;;;;;;;5.63;2.80;;;-1.40;99.90;;;;;;4993827;28;20180;-77
2022/02/12 07:43:13;;;;;;;4.13;1.20;;;-1.40;99.90;;;;;;4982816;28;20180;-76
2022/02/12 07:45:38;;;;;;;3.30;1.40;;;-1.40;99.90;;;;;;4989914;28;20626;-75
2022/02/12 07:48:04;;;;;;;3.20;1.30;;;-1.40;99.90;;;;;;4988631;28;20417;-77
2022/02/12 07:50:30;;;;;;;3.77;1.60;;;-1.40;99.90;;;;;;4983870;28;20180;-77
2022/02/12 07:52:56;;;;;;;5.63;2.43;;;-1.30;99.90;;;;;;5003431;28;20651;-76
2022/02/12 07:55:21;;;;;;;5.87;2.83;;;-1.20;99.90;;;;;;4984492;28;20188;-77
2022/02/12 07:57:47;;;;;;;25.73;16.47;;;-1.20;99.90;;;;;;4985650;28;20295;-76
2022/02/12 08:00:14;;;;;;;5.70;3.30;;;-1.10;99.90;;;;;;4992917;28;20274;-77
2022/02/12 08:02:40;;;;;;;12.83;6.73;;;-1.00;99.90;;;;;;5009158;28;20196;-77
2022/02/12 08:05:09;;;;;;;20.67;11.63;;;-0.90;99.90;;;;;;4996220;28;20532;-78
2022/02/12 08:07:38;;;;;;;22.20;14.17;;;-0.80;99.90;;;;;;4989284;28;20211;-77
2022/02/12 08:12:51;;;;;;;9.77;6.97;;;-0.60;99.90;;;;;;4990069;28;20816;-77
2022/02/12 08:15:17;;;;;;;32.60;16.73;;;-0.50;99.90;;;;;;5017100;28;20221;-76
2022/02/12 08:17:42;;;;;;;100.77;52.63;;;-0.40;99.90;;;;;;4988370;28;20212;-77
2022/02/12 08:20:09;;;;;;;23.33;13.83;;;-0.30;99.90;;;;;;4986647;28;20254;-78
2022/02/12 08:22:34;;;;;;;12.17;5.80;;;-0.30;99.90;;;;;;4995326;28;20180;-79
2022/02/12 08:25:00;;;;;;;30.57;15.23;;;-0.20;99.90;;;;;;4989264;28;20677;-77
2022/02/12 08:27:28;;;;;;;38.10;18.70;;;0.00;99.90;;;;;;4998717;28;20188;-76
2022/02/12 08:29:54;;;;;;;28.23;13.60;;;0.10;99.90;;;;;;4998968;28;20665;-77
2022/02/12 08:32:21;;;;;;;14.10;8.43;;;0.20;99.90;;;;;;4995998;28;20188;-77
2022/02/12 08:34:47;;;;;;;13.93;7.87;;;0.30;99.90;;;;;;5000947;28;20238;-78
2022/02/12 08:37:13;;;;;;;10.80;6.80;;;0.30;99.90;;;;;;4997326;28;20203;-79
2022/02/12 08:39:39;;;;;;;13.97;8.33;;;0.50;99.90;;;;;;4998361;28;20190;-77
2022/02/12 08:42:06;;;;;;;11.43;9.97;;;0.50;99.90;;;;;;5000511;28;20565;-78
2022/02/12 08:44:32;;;;;;;8.03;4.87;;;0.60;99.90;;;;;;4997078;28;20176;-78
2022/02/12 08:46:57;;;;;;;8.03;5.37;;;0.80;99.90;;;;;;4997095;28;20275;-77
2022/02/12 08:49:23;;;;;;;7.43;5.10;;;0.90;99.90;;;;;;4998012;28;20207;-77
2022/02/12 08:51:49;;;;;;;8.17;4.60;;;1.00;99.90;;;;;;5000038;28;20211;-79
2022/02/12 08:54:14;;;;;;;4.00;2.10;;;1.10;99.90;;;;;;4998654;28;20184;-77
2022/02/12 08:56:42;;;;;;;4.93;1.43;;;1.20;99.90;;;;;;4998483;28;20255;-78
2022/02/12 08:59:08;;;;;;;4.93;2.03;;;1.20;99.90;;;;;;4998833;28;20215;-78
2022/02/12 09:01:37;;;;;;;4.00;2.40;;;1.30;99.90;;;;;;4997861;28;20238;-78
2022/02/12 09:04:05;;;;;;;3.90;1.90;;;1.40;99.90;;;;;;4999214;28;20413;-79
2022/02/12 09:06:31;;;;;;;6.23;3.07;;;1.40;99.90;;;;;;5014084;28;20191;-78
2022/02/12 09:08:58;;;;;;;5.53;3.80;;;1.60;99.90;;;;;;5011990;28;20211;-79
2022/02/12 09:11:25;;;;;;;4.10;2.30;;;1.70;99.90;;;;;;4995553;28;20192;-76
2022/02/12 09:13:53;;;;;;;5.03;2.53;;;1.80;99.90;;;;;;4999810;28;20341;-79
2022/02/12 09:16:20;;;;;;;5.87;2.00;;;1.80;99.90;;;;;;4998065;28;20595;-78
2022/02/12 09:18:46;;;;;;;3.03;1.23;;;2.00;99.90;;;;;;4999811;28;20219;-78
2022/02/12 09:21:12;;;;;;;4.97;1.30;;;2.10;99.90;;;;;;5000222;28;20184;-79
2022/02/12 09:23:38;;;;;;;3.27;1.60;;;2.10;99.90;;;;;;4998496;28;20191;-79
2022/02/12 09:26:04;;;;;;;2.77;1.80;;;2.10;99.90;;;;;;4998530;28;20172;-78
2022/02/12 09:28:30;;;;;;;6.80;1.60;;;2.20;99.90;;;;;;4997246;28;20220;-79
2022/02/12 09:30:55;;;;;;;5.73;2.23;;;2.30;99.90;;;;;;4996468;28;20559;-77
2022/02/12 09:33:21;;;;;;;3.63;1.80;;;2.40;99.90;;;;;;4998635;28;20187;-79
2022/02/12 09:35:52;;;;;;;5.40;2.87;;;2.50;99.90;;;;;;4994505;28;20184;-78
2022/02/12 09:38:21;;;;;;;4.67;2.20;;;2.50;99.90;;;;;;4995225;28;20753;-77
2022/02/12 09:40:47;;;;;;;12.73;2.17;;;2.70;99.90;;;;;;5002012;28;20183;-77
2022/02/12 09:43:14;;;;;;;4.50;1.53;;;2.70;99.90;;;;;;4995644;28;20286;-79
2022/02/12 09:45:48;;;;;;;6.73;2.10;;;2.80;99.90;;;;;;5004821;28;20669;-77
2022/02/12 09:48:14;;;;;;;7.33;2.40;;;2.90;99.90;;;;;;4992941;28;20796;-77
2022/02/12 09:50:41;;;;;;;4.83;1.87;;;3.10;99.90;;;;;;4990672;28;20183;-78
2022/02/12 09:53:07;;;;;;;5.63;2.33;;;3.30;99.90;;;;;;4991371;28;20267;-78
2022/02/12 09:55:35;;;;;;;2.93;1.50;;;3.40;99.90;;;;;;4994400;28;20243;-78
2022/02/12 09:58:04;;;;;;;7.33;1.50;;;3.50;99.90;;;;;;4987721;28;20306;-81
2022/02/12 10:00:30;;;;;;;4.13;1.50;;;3.60;99.90;;;;;;4990665;28;20738;-76
2022/02/12 10:02:56;;;;;;;3.33;1.23;;;3.70;99.90;;;;;;5002433;28;20207;-76
2022/02/12 10:05:31;;;;;;;3.13;1.50;;;3.80;99.90;;;;;;5010449;28;20184;-78
2022/02/12 10:08:00;;;;;;;3.13;1.33;;;3.90;99.90;;;;;;4997787;28;20752;-75
2022/02/12 10:10:27;;;;;;;5.93;1.83;;;4.00;99.90;;;;;;5000114;28;20825;-76
2022/02/12 10:13:14;;;;;;;2.13;1.20;;;4.00;99.90;;;;;;5006308;28;20536;-80
2022/02/12 10:15:45;;;;;;;3.53;1.00;;;4.00;99.90;;;;;;5011142;28;20196;-78
2022/02/12 10:18:11;;;;;;;2.63;1.27;;;4.00;99.90;;;;;;5013963;28;20214;-79
2022/02/12 10:20:40;;;;;;;4.87;1.20;;;4.10;99.90;;;;;;4992468;28;20207;-79
2022/02/12 10:23:17;;;;;;;4.23;1.40;;;4.30;99.90;;;;;;5019353;28;20215;-77
2022/02/12 10:25:49;;;;;;;3.67;1.20;;;4.50;99.90;;;;;;4995349;28;20646;-77
2022/02/12 10:28:17;;;;;;;2.27;0.80;;;4.60;99.90;;;;;;4998124;28;20219;-74
2022/02/12 10:30:44;;;;;;;2.90;0.97;;;4.60;99.90;;;;;;5012266;28;20195;-75
2022/02/12 10:33:10;;;;;;;4.47;1.00;;;4.70;99.90;;;;;;4993699;28;20192;-78
2022/02/12 10:35:38;;;;;;;3.17;1.00;;;4.50;99.90;;;;;;5000587;28;20188;-81
2022/02/12 10:38:15;;;;;;;4.43;1.37;;;4.30;99.90;;;;;;5019614;28;20222;-81
2022/02/12 10:40:41;;;;;;;3.13;1.33;;;4.40;99.90;;;;;;4996639;28;20180;-80
2022/02/12 10:43:07;;;;;;;5.03;1.40;;;4.50;99.90;;;;;;4999014;28;20668;-74
2022/02/12 10:45:34;;;;;;;3.13;1.50;;;4.60;99.90;;;;;;5015442;28;20184;-79
2022/02/12 10:48:01;;;;;;;1.87;1.13;;;4.80;99.90;;;;;;5006056;28;20326;-78
2022/02/12 10:50:30;;;;;;;2.07;1.03;;;5.00;99.90;;;;;;5003214;28;20192;-78
2022/02/12 10:52:59;;;;;;;3.57;1.13;;;5.00;99.90;;;;;;5004183;28;20218;-80
2022/02/12 10:55:30;;;;;;;2.87;1.00;;;5.10;99.90;;;;;;5003971;28;20187;-77
2022/02/12 10:58:00;;;;;;;3.23;1.10;;;5.20;99.90;;;;;;5018297;28;20242;-80
2022/02/12 11:00:28;;;;;;;4.33;1.20;;;5.10;99.90;;;;;;5011318;28;20188;-81
2022/02/12 11:02:55;;;;;;;8.00;1.77;;;5.20;99.90;;;;;;5004674;28;20556;-77
2022/02/12 11:05:22;;;;;;;3.97;1.30;;;5.30;99.90;;;;;;5005023;28;20180;-78
2022/02/12 11:07:52;;;;;;;4.63;1.13;;;5.40;99.90;;;;;;5003710;28;20728;-77
2022/02/12 11:10:18;;;;;;;5.40;1.53;;;5.40;99.90;;;;;;5004724;28;21078;-77
2022/02/12 11:12:44;;;;;;;4.63;1.50;;;5.50;99.90;;;;;;5003098;28;20189;-79
2022/02/12 11:15:10;;;;;;;3.40;1.03;;;5.40;99.90;;;;;;5001577;28;20206;-78
2022/02/12 11:17:37;;;;;;;5.80;1.67;;;5.60;99.90;;;;;;4999982;28;21391;-77
2022/02/12 11:20:05;;;;;;;2.90;1.20;;;5.60;99.90;;;;;;4994460;28;20180;-78
2022/02/12 11:22:31;;;;;;;2.97;0.90;;;5.50;99.90;;;;;;4997060;28;20180;-79
2022/02/12 11:24:57;;;;;;;3.23;1.10;;;5.70;99.90;;;;;;5001812;28;20187;-79
2022/02/12 11:27:23;;;;;;;3.47;1.30;;;5.40;99.90;;;;;;4994589;28;20226;-77
2022/02/12 11:30:14;;;;;;;2.93;0.97;;;5.50;99.90;;;;;;4995383;28;20226;-79
2022/02/12 11:32:44;;;;;;;6.10;1.17;;;5.60;99.90;;;;;;4983626;28;20196;-78
2022/02/12 11:35:09;;;;;;;3.73;1.23;;;5.70;99.90;;;;;;5009780;28;20424;-79
2022/02/12 11:37:49;;;;;;;3.70;0.90;;;5.80;99.90;;;;;;4994072;28;20212;-78
2022/02/12 11:40:21;;;;;;;3.37;1.10;;;6.00;99.90;;;;;;5012126;28;20187;-80
2022/02/12 11:42:58;;;;;;;4.07;1.03;;;6.10;99.90;;;;;;4996364;28;20278;-81
2022/02/12 11:45:31;;;;;;;5.07;0.93;;;6.10;99.90;;;;;;4993622;28;20535;-78
2022/02/12 11:48:30;;;;;;;3.53;1.00;;;6.10;99.90;;;;;;4994890;28;20199;-77
2022/02/12 11:51:00;;;;;;;2.87;1.10;;;6.20;99.90;;;;;;4967839;28;20566;-80
2022/02/12 11:53:46;;;;;;;3.90;1.10;;;6.20;99.90;;;;;;4997242;28;20189;-79
2022/02/12 11:56:18;;;;;;;2.77;1.07;;;6.30;99.90;;;;;;4996660;28;20247;-80
2022/02/12 11:58:44;;;;;;;3.97;1.07;;;6.30;99.90;;;;;;4996445;28;20215;-76
2022/02/12 12:01:22;;;;;;;4.40;1.00;;;6.10;99.90;;;;;;4993269;28;20172;-79
2022/02/12 12:04:16;;;;;;;4.27;1.47;;;6.10;99.90;;;;;;4996088;28;20608;-80
2022/02/12 12:07:02;;;;;;;2.40;0.90;;;6.20;99.90;;;;;;4991351;28;20602;-78
2022/02/12 12:09:33;;;;;;;3.80;1.63;;;6.40;99.90;;;;;;5000193;28;20206;-81
2022/02/12 12:12:16;;;;;;;3.63;1.60;;;6.40;99.90;;;;;;5020433;28;20179;-80
2022/02/12 12:14:42;;;;;;;5.00;2.83;;;6.50;99.90;;;;;;4995072;28;20181;-80
2022/02/12 12:17:08;;;;;;;3.80;2.23;;;6.50;99.90;;;;;;4997649;28;20211;-78
2022/02/12 12:19:40;;;;;;;2.53;1.10;;;6.30;99.90;;;;;;4995084;28;20240;-79
2022/02/12 12:22:07;;;;;;;2.30;1.20;;;6.20;99.90;;;;;;5006456;28;20184;-79
2022/02/12 12:24:33;;;;;;;3.93;1.17;;;6.20;99.90;;;;;;4996501;28;20234;-78
2022/02/12 12:27:00;;;;;;;1.53;0.80;;;6.30;99.90;;;;;;4997244;28;20190;-75
2022/02/12 12:32:16;;;;;;;4.00;0.73;;;6.60;99.90;;;;;;4992157;28;20619;-78
2022/02/12 12:35:00;;;;;;;2.70;1.20;;;6.50;99.90;;;;;;5005231;28;20176;-80
2022/02/12 12:37:27;;;;;;;4.60;0.93;;;6.60;99.90;;;;;;4994475;28;20203;-79
2022/02/12 12:39:59;;;;;;;3.03;0.80;;;6.60;99.90;;;;;;5001379;28;20187;-77
2022/02/12 12:42:26;;;;;;;3.57;0.70;;;6.60;99.90;;;;;;4992151;28;20206;-78
2022/02/12 12:45:12;;;;;;;2.17;1.10;;;6.60;99.90;;;;;;5000025;28;20194;-80
2022/02/12 12:47:48;;;;;;;4.43;1.30;;;6.40;99.90;;;;;;5001577;28;20692;-80
2022/02/12 12:50:13;;;;;;;2.87;0.80;;;6.30;99.90;;;;;;4994198;28;20215;-79
2022/02/12 12:52:39;;;;;;;1.83;0.90;;;6.00;99.90;;;;;;4991008;28;20215;-79
2022/02/12 12:55:16;;;;;;;5.30;1.10;;;6.00;99.90;;;;;;5006855;28;20188;-76
2022/02/12 12:57:43;;;;;;;4.37;1.40;;;6.20;99.90;;;;;;4993584;28;20689;-76
2022/02/12 13:00:10;;;;;;;1.60;0.90;;;6.20;99.90;;;;;;4992671;28;20554;-79
2022/02/12 13:02:46;;;;;;;2.47;0.80;;;6.20;99.90;;;;;;5010600;28;20227;-78
2022/02/12 13:05:12;;;;;;;4.57;1.17;;;6.40;99.90;;;;;;4990391;28;20172;-80